sensor_id;sensor_type;location;lat;lon;timestamp;P1;durP1;ratioP1;P2;durP2;ratioP2
12363;SDS011;6246;50.826;4.712;2022-09-09T00:04:35;6.77;;;5.40;;
12363;SDS011;6246;50.826;4.712;2022-09-09T00:09:34;5.38;;;4.88;;
12363;SDS011;6246;50.826;4.712;2022-09-09T00:12:22;5.20;;;4.72;;
12363;SDS011;6246;50.826;4.712;2022-09-09T00:14:51;8.73;;;5.30;;
12363;SDS011;6246;50.826;4.712;2022-09-09T00:22:30;10.27;;;5.25;;
12363;SDS011;6246;50.826;4.712;2022-09-09T00:25:21;5.80;;;4.53;;
12363;SDS011;6246;50.826;4.712;2022-09-09T00:27:49;6.82;;;5.18;;
12363;SDS011;6246;50.826;4.712;2022-09-09T00:32:44;6.00;;;4.47;;
12363;SDS011;6246;50.826;4.712;2022-09-09T00:35:16;5.32;;;4.63;;
12363;SDS011;6246;50.826;4.712;2022-09-09T00:37:43;4.88;;;4.10;;
12363;SDS011;6246;50.826;4.712;2022-09-09T00:40:45;5.38;;;4.45;;
12363;SDS011;6246;50.826;4.712;2022-09-09T00:45:59;4.90;;;4.32;;
12363;SDS011;6246;50.826;4.712;2022-09-09T00:48:45;5.20;;;4.32;;
12363;SDS011;6246;50.826;4.712;2022-09-09T00:56:50;6.03;;;4.20;;
12363;SDS011;6246;50.826;4.712;2022-09-09T01:01:44;6.78;;;4.45;;
12363;SDS011;6246;50.826;4.712;2022-09-09T01:04:13;5.03;;;4.35;;
12363;SDS011;6246;50.826;4.712;2022-09-09T01:06:42;4.80;;;3.80;;
12363;SDS011;6246;50.826;4.712;2022-09-09T01:14:37;6.47;;;4.07;;
12363;SDS011;6246;50.826;4.712;2022-09-09T01:27:19;5.13;;;3.50;;
12363;SDS011;6246;50.826;4.712;2022-09-09T01:29:46;6.00;;;3.80;;
12363;SDS011;6246;50.826;4.712;2022-09-09T01:34:57;4.10;;;3.00;;
12363;SDS011;6246;50.826;4.712;2022-09-09T01:37:23;5.47;;;3.70;;
12363;SDS011;6246;50.826;4.712;2022-09-09T01:39:49;7.70;;;3.67;;
12363;SDS011;6246;50.826;4.712;2022-09-09T01:42:15;4.90;;;3.35;;
12363;SDS011;6246;50.826;4.712;2022-09-09T01:44:41;6.22;;;3.95;;
12363;SDS011;6246;50.826;4.712;2022-09-09T01:47:07;4.20;;;3.80;;
12363;SDS011;6246;50.826;4.712;2022-09-09T01:49:34;6.32;;;3.90;;
12363;SDS011;6246;50.826;4.712;2022-09-09T01:52:00;4.47;;;3.97;;
12363;SDS011;6246;50.826;4.712;2022-09-09T01:54:28;6.20;;;4.27;;
12363;SDS011;6246;50.826;4.712;2022-09-09T01:57:00;6.30;;;4.70;;
12363;SDS011;6246;50.826;4.712;2022-09-09T02:04:40;8.87;;;5.63;;
12363;SDS011;6246;50.826;4.712;2022-09-09T02:07:13;7.68;;;6.20;;
12363;SDS011;6246;50.826;4.712;2022-09-09T02:09:39;6.93;;;6.00;;
12363;SDS011;6246;50.826;4.712;2022-09-09T02:12:08;8.97;;;5.67;;
12363;SDS011;6246;50.826;4.712;2022-09-09T02:14:39;9.93;;;6.90;;
12363;SDS011;6246;50.826;4.712;2022-09-09T02:17:08;8.03;;;6.23;;
12363;SDS011;6246;50.826;4.712;2022-09-09T02:19:36;7.20;;;6.07;;
12363;SDS011;6246;50.826;4.712;2022-09-09T02:22:03;8.87;;;7.00;;
12363;SDS011;6246;50.826;4.712;2022-09-09T02:24:30;9.75;;;6.82;;
12363;SDS011;6246;50.826;4.712;2022-09-09T02:26:58;9.73;;;6.37;;
12363;SDS011;6246;50.826;4.712;2022-09-09T02:29:47;9.67;;;7.10;;
12363;SDS011;6246;50.826;4.712;2022-09-09T02:32:14;11.38;;;7.68;;
12363;SDS011;6246;50.826;4.712;2022-09-09T02:34:45;11.73;;;8.40;;
12363;SDS011;6246;50.826;4.712;2022-09-09T02:37:13;12.73;;;9.13;;
12363;SDS011;6246;50.826;4.712;2022-09-09T02:39:41;12.13;;;9.17;;
12363;SDS011;6246;50.826;4.712;2022-09-09T02:42:07;11.20;;;8.90;;
12363;SDS011;6246;50.826;4.712;2022-09-09T02:44:33;11.47;;;8.80;;
12363;SDS011;6246;50.826;4.712;2022-09-09T02:47:06;11.83;;;9.57;;
12363;SDS011;6246;50.826;4.712;2022-09-09T02:49:40;11.87;;;9.03;;
12363;SDS011;6246;50.826;4.712;2022-09-09T02:52:08;12.13;;;8.87;;
12363;SDS011;6246;50.826;4.712;2022-09-09T02:54:40;10.83;;;8.33;;
12363;SDS011;6246;50.826;4.712;2022-09-09T02:57:08;12.67;;;8.70;;
12363;SDS011;6246;50.826;4.712;2022-09-09T02:59:36;11.73;;;8.10;;
12363;SDS011;6246;50.826;4.712;2022-09-09T03:02:02;10.70;;;7.83;;
12363;SDS011;6246;50.826;4.712;2022-09-09T03:04:28;12.37;;;8.17;;
12363;SDS011;6246;50.826;4.712;2022-09-09T03:06:55;10.13;;;7.33;;
12363;SDS011;6246;50.826;4.712;2022-09-09T03:09:21;11.40;;;7.90;;
12363;SDS011;6246;50.826;4.712;2022-09-09T03:11:47;11.40;;;7.80;;
12363;SDS011;6246;50.826;4.712;2022-09-09T03:14:14;12.63;;;7.90;;
12363;SDS011;6246;50.826;4.712;2022-09-09T03:16:40;8.90;;;6.80;;
12363;SDS011;6246;50.826;4.712;2022-09-09T03:19:08;10.10;;;7.27;;
12363;SDS011;6246;50.826;4.712;2022-09-09T03:21:34;10.00;;;7.30;;
12363;SDS011;6246;50.826;4.712;2022-09-09T03:24:00;10.33;;;7.03;;
12363;SDS011;6246;50.826;4.712;2022-09-09T03:26:28;11.67;;;7.10;;
12363;SDS011;6246;50.826;4.712;2022-09-09T03:28:55;9.50;;;7.00;;
12363;SDS011;6246;50.826;4.712;2022-09-09T03:31:21;11.20;;;6.93;;
12363;SDS011;6246;50.826;4.712;2022-09-09T03:33:47;10.97;;;7.27;;
12363;SDS011;6246;50.826;4.712;2022-09-09T03:36:13;6.93;;;5.97;;
12363;SDS011;6246;50.826;4.712;2022-09-09T03:38:39;8.83;;;6.80;;
12363;SDS011;6246;50.826;4.712;2022-09-09T03:41:05;11.07;;;7.23;;
12363;SDS011;6246;50.826;4.712;2022-09-09T03:43:32;8.70;;;6.30;;
12363;SDS011;6246;50.826;4.712;2022-09-09T03:45:59;9.27;;;6.60;;
12363;SDS011;6246;50.826;4.712;2022-09-09T03:48:25;10.03;;;6.27;;
12363;SDS011;6246;50.826;4.712;2022-09-09T03:50:53;7.70;;;6.20;;
12363;SDS011;6246;50.826;4.712;2022-09-09T03:53:23;9.63;;;5.83;;
12363;SDS011;6246;50.826;4.712;2022-09-09T03:55:51;8.33;;;6.07;;
12363;SDS011;6246;50.826;4.712;2022-09-09T03:58:21;7.40;;;5.60;;
12363;SDS011;6246;50.826;4.712;2022-09-09T04:01:05;11.70;;;6.30;;
12363;SDS011;6246;50.826;4.712;2022-09-09T04:03:33;9.00;;;5.80;;
12363;SDS011;6246;50.826;4.712;2022-09-09T04:06:00;8.93;;;5.70;;
12363;SDS011;6246;50.826;4.712;2022-09-09T04:08:28;10.43;;;6.30;;
12363;SDS011;6246;50.826;4.712;2022-09-09T04:10:56;9.07;;;5.87;;
12363;SDS011;6246;50.826;4.712;2022-09-09T04:13:23;9.10;;;6.13;;
12363;SDS011;6246;50.826;4.712;2022-09-09T04:15:52;8.37;;;6.00;;
12363;SDS011;6246;50.826;4.712;2022-09-09T04:18:18;10.40;;;6.30;;
12363;SDS011;6246;50.826;4.712;2022-09-09T04:20:48;8.30;;;6.50;;
12363;SDS011;6246;50.826;4.712;2022-09-09T04:23:15;11.47;;;7.00;;
12363;SDS011;6246;50.826;4.712;2022-09-09T04:25:45;11.07;;;7.93;;
12363;SDS011;6246;50.826;4.712;2022-09-09T04:28:12;10.83;;;8.27;;
12363;SDS011;6246;50.826;4.712;2022-09-09T04:30:38;10.17;;;8.37;;
12363;SDS011;6246;50.826;4.712;2022-09-09T04:33:05;13.37;;;9.63;;
12363;SDS011;6246;50.826;4.712;2022-09-09T04:35:31;12.00;;;9.27;;
12363;SDS011;6246;50.826;4.712;2022-09-09T04:37:58;11.13;;;9.00;;
12363;SDS011;6246;50.826;4.712;2022-09-09T04:40:24;11.80;;;9.33;;
12363;SDS011;6246;50.826;4.712;2022-09-09T04:42:50;11.97;;;9.47;;
12363;SDS011;6246;50.826;4.712;2022-09-09T04:45:16;12.03;;;9.77;;
12363;SDS011;6246;50.826;4.712;2022-09-09T04:47:43;14.47;;;10.30;;
12363;SDS011;6246;50.826;4.712;2022-09-09T04:50:09;12.07;;;9.20;;
12363;SDS011;6246;50.826;4.712;2022-09-09T04:52:35;12.30;;;9.27;;
12363;SDS011;6246;50.826;4.712;2022-09-09T04:55:02;11.97;;;9.30;;
12363;SDS011;6246;50.826;4.712;2022-09-09T04:57:28;11.40;;;9.33;;
12363;SDS011;6246;50.826;4.712;2022-09-09T04:59:55;11.43;;;9.07;;
12363;SDS011;6246;50.826;4.712;2022-09-09T05:02:21;11.07;;;8.43;;
12363;SDS011;6246;50.826;4.712;2022-09-09T05:04:47;12.03;;;9.17;;
12363;SDS011;6246;50.826;4.712;2022-09-09T05:07:14;11.43;;;8.37;;
12363;SDS011;6246;50.826;4.712;2022-09-09T05:09:40;12.20;;;8.83;;
12363;SDS011;6246;50.826;4.712;2022-09-09T05:12:06;12.37;;;8.73;;
12363;SDS011;6246;50.826;4.712;2022-09-09T05:14:33;11.90;;;8.70;;
12363;SDS011;6246;50.826;4.712;2022-09-09T05:17:01;12.07;;;8.50;;
12363;SDS011;6246;50.826;4.712;2022-09-09T05:19:27;12.63;;;8.80;;
12363;SDS011;6246;50.826;4.712;2022-09-09T05:21:53;11.37;;;7.97;;
12363;SDS011;6246;50.826;4.712;2022-09-09T05:24:19;10.73;;;8.03;;
12363;SDS011;6246;50.826;4.712;2022-09-09T05:26:45;10.83;;;8.27;;
12363;SDS011;6246;50.826;4.712;2022-09-09T05:29:11;10.97;;;7.77;;
12363;SDS011;6246;50.826;4.712;2022-09-09T05:31:37;14.77;;;8.30;;
12363;SDS011;6246;50.826;4.712;2022-09-09T05:34:04;10.33;;;7.87;;
12363;SDS011;6246;50.826;4.712;2022-09-09T05:36:29;10.90;;;7.30;;
12363;SDS011;6246;50.826;4.712;2022-09-09T05:38:55;11.50;;;7.07;;
12363;SDS011;6246;50.826;4.712;2022-09-09T05:41:22;11.37;;;7.30;;
12363;SDS011;6246;50.826;4.712;2022-09-09T05:43:48;10.77;;;7.37;;
12363;SDS011;6246;50.826;4.712;2022-09-09T05:46:18;10.03;;;6.80;;
12363;SDS011;6246;50.826;4.712;2022-09-09T05:48:45;10.47;;;7.10;;
12363;SDS011;6246;50.826;4.712;2022-09-09T05:51:12;8.27;;;6.30;;
12363;SDS011;6246;50.826;4.712;2022-09-09T05:53:40;10.60;;;6.80;;
12363;SDS011;6246;50.826;4.712;2022-09-09T05:56:07;8.57;;;6.70;;
12363;SDS011;6246;50.826;4.712;2022-09-09T05:58:35;10.90;;;7.20;;
12363;SDS011;6246;50.826;4.712;2022-09-09T06:01:08;9.70;;;6.73;;
12363;SDS011;6246;50.826;4.712;2022-09-09T06:03:35;9.97;;;6.50;;
12363;SDS011;6246;50.826;4.712;2022-09-09T06:06:02;9.27;;;6.10;;
12363;SDS011;6246;50.826;4.712;2022-09-09T06:08:30;7.93;;;6.30;;
12363;SDS011;6246;50.826;4.712;2022-09-09T06:11:03;6.97;;;5.77;;
12363;SDS011;6246;50.826;4.712;2022-09-09T06:13:30;8.20;;;5.97;;
12363;SDS011;6246;50.826;4.712;2022-09-09T06:15:56;7.87;;;5.77;;
12363;SDS011;6246;50.826;4.712;2022-09-09T06:18:23;9.00;;;5.47;;
12363;SDS011;6246;50.826;4.712;2022-09-09T06:21:02;9.67;;;5.73;;
12363;SDS011;6246;50.826;4.712;2022-09-09T06:23:32;8.97;;;5.80;;
12363;SDS011;6246;50.826;4.712;2022-09-09T06:26:05;7.40;;;5.60;;
12363;SDS011;6246;50.826;4.712;2022-09-09T06:28:32;8.77;;;5.80;;
12363;SDS011;6246;50.826;4.712;2022-09-09T06:30:59;8.20;;;5.27;;
12363;SDS011;6246;50.826;4.712;2022-09-09T06:33:25;7.00;;;5.40;;
12363;SDS011;6246;50.826;4.712;2022-09-09T06:35:53;7.80;;;5.10;;
12363;SDS011;6246;50.826;4.712;2022-09-09T06:38:20;7.47;;;5.10;;
12363;SDS011;6246;50.826;4.712;2022-09-09T06:40:51;6.87;;;5.27;;
12363;SDS011;6246;50.826;4.712;2022-09-09T06:43:17;6.07;;;5.03;;
12363;SDS011;6246;50.826;4.712;2022-09-09T06:45:52;7.37;;;5.07;;
12363;SDS011;6246;50.826;4.712;2022-09-09T06:48:18;7.10;;;4.80;;
12363;SDS011;6246;50.826;4.712;2022-09-09T06:50:44;6.60;;;4.73;;
12363;SDS011;6246;50.826;4.712;2022-09-09T06:53:11;7.20;;;4.57;;
12363;SDS011;6246;50.826;4.712;2022-09-09T06:55:37;7.07;;;4.40;;
12363;SDS011;6246;50.826;4.712;2022-09-09T06:58:08;6.57;;;5.00;;
12363;SDS011;6246;50.826;4.712;2022-09-09T07:00:34;7.53;;;4.30;;
12363;SDS011;6246;50.826;4.712;2022-09-09T07:03:02;4.87;;;3.80;;
12363;SDS011;6246;50.826;4.712;2022-09-09T07:05:28;5.70;;;4.10;;
12363;SDS011;6246;50.826;4.712;2022-09-09T07:07:54;6.13;;;4.10;;
12363;SDS011;6246;50.826;4.712;2022-09-09T07:10:20;8.70;;;4.27;;
12363;SDS011;6246;50.826;4.712;2022-09-09T07:12:50;6.10;;;4.03;;
12363;SDS011;6246;50.826;4.712;2022-09-09T07:15:17;6.70;;;4.03;;
12363;SDS011;6246;50.826;4.712;2022-09-09T07:17:43;5.67;;;4.30;;
12363;SDS011;6246;50.826;4.712;2022-09-09T07:20:10;6.10;;;4.07;;
12363;SDS011;6246;50.826;4.712;2022-09-09T07:22:36;6.53;;;3.77;;
12363;SDS011;6246;50.826;4.712;2022-09-09T07:25:02;6.57;;;3.80;;
12363;SDS011;6246;50.826;4.712;2022-09-09T07:27:28;9.17;;;4.10;;
12363;SDS011;6246;50.826;4.712;2022-09-09T07:29:55;7.00;;;4.00;;
12363;SDS011;6246;50.826;4.712;2022-09-09T07:32:22;4.50;;;3.73;;
12363;SDS011;6246;50.826;4.712;2022-09-09T07:34:48;4.87;;;3.70;;
12363;SDS011;6246;50.826;4.712;2022-09-09T07:37:15;5.17;;;3.60;;
12363;SDS011;6246;50.826;4.712;2022-09-09T07:39:42;5.73;;;3.20;;
12363;SDS011;6246;50.826;4.712;2022-09-09T07:42:08;4.33;;;3.53;;
12363;SDS011;6246;50.826;4.712;2022-09-09T07:44:36;6.73;;;3.50;;
12363;SDS011;6246;50.826;4.712;2022-09-09T07:47:04;5.13;;;3.33;;
12363;SDS011;6246;50.826;4.712;2022-09-09T07:49:30;6.23;;;3.80;;
12363;SDS011;6246;50.826;4.712;2022-09-09T07:51:57;6.63;;;3.30;;
12363;SDS011;6246;50.826;4.712;2022-09-09T07:54:24;4.93;;;3.17;;
12363;SDS011;6246;50.826;4.712;2022-09-09T07:56:51;4.13;;;2.90;;
12363;SDS011;6246;50.826;4.712;2022-09-09T07:59:17;5.90;;;3.70;;
12363;SDS011;6246;50.826;4.712;2022-09-09T08:01:45;6.97;;;2.93;;
12363;SDS011;6246;50.826;4.712;2022-09-09T08:04:12;6.90;;;3.30;;
12363;SDS011;6246;50.826;4.712;2022-09-09T08:06:46;4.70;;;3.17;;
12363;SDS011;6246;50.826;4.712;2022-09-09T08:09:13;6.63;;;2.63;;
12363;SDS011;6246;50.826;4.712;2022-09-09T08:11:39;6.53;;;3.17;;
12363;SDS011;6246;50.826;4.712;2022-09-09T08:14:08;4.43;;;2.83;;
12363;SDS011;6246;50.826;4.712;2022-09-09T08:16:38;5.60;;;3.10;;
12363;SDS011;6246;50.826;4.712;2022-09-09T08:19:05;5.17;;;2.70;;
12363;SDS011;6246;50.826;4.712;2022-09-09T08:21:32;6.30;;;2.97;;
12363;SDS011;6246;50.826;4.712;2022-09-09T08:23:59;5.70;;;2.87;;
12363;SDS011;6246;50.826;4.712;2022-09-09T08:26:30;6.17;;;3.03;;
12363;SDS011;6246;50.826;4.712;2022-09-09T08:28:57;4.67;;;2.73;;
12363;SDS011;6246;50.826;4.712;2022-09-09T08:31:27;5.80;;;2.63;;
12363;SDS011;6246;50.826;4.712;2022-09-09T08:33:54;7.63;;;3.13;;
12363;SDS011;6246;50.826;4.712;2022-09-09T08:36:22;4.07;;;2.67;;
12363;SDS011;6246;50.826;4.712;2022-09-09T08:38:49;7.33;;;2.77;;
12363;SDS011;6246;50.826;4.712;2022-09-09T08:55:03;7.23;;;2.53;;
12363;SDS011;6246;50.826;4.712;2022-09-09T08:57:37;4.20;;;2.10;;
12363;SDS011;6246;50.826;4.712;2022-09-09T09:00:04;4.03;;;2.03;;
12363;SDS011;6246;50.826;4.712;2022-09-09T09:10:37;5.20;;;2.57;;
12363;SDS011;6246;50.826;4.712;2022-09-09T09:13:07;3.97;;;1.93;;
12363;SDS011;6246;50.826;4.712;2022-09-09T09:15:38;4.70;;;2.20;;
12363;SDS011;6246;50.826;4.712;2022-09-09T09:18:05;4.57;;;2.40;;
12363;SDS011;6246;50.826;4.712;2022-09-09T09:20:38;5.67;;;2.20;;
12363;SDS011;6246;50.826;4.712;2022-09-09T09:23:09;6.37;;;2.23;;
12363;SDS011;6246;50.826;4.712;2022-09-09T09:25:40;5.77;;;2.43;;
12363;SDS011;6246;50.826;4.712;2022-09-09T09:28:18;5.40;;;2.07;;
12363;SDS011;6246;50.826;4.712;2022-09-09T09:31:04;4.33;;;2.13;;
12363;SDS011;6246;50.826;4.712;2022-09-09T09:36:08;4.80;;;2.27;;
12363;SDS011;6246;50.826;4.712;2022-09-09T09:38:35;4.57;;;2.27;;
12363;SDS011;6246;50.826;4.712;2022-09-09T09:41:01;4.17;;;2.03;;
12363;SDS011;6246;50.826;4.712;2022-09-09T09:43:31;5.10;;;1.97;;
12363;SDS011;6246;50.826;4.712;2022-09-09T09:45:58;3.50;;;1.90;;
12363;SDS011;6246;50.826;4.712;2022-09-09T09:48:24;6.13;;;2.30;;
12363;SDS011;6246;50.826;4.712;2022-09-09T09:55:59;4.50;;;2.07;;
12363;SDS011;6246;50.826;4.712;2022-09-09T09:58:26;4.93;;;1.90;;
12363;SDS011;6246;50.826;4.712;2022-09-09T10:00:53;3.50;;;1.90;;
12363;SDS011;6246;50.826;4.712;2022-09-09T10:03:29;2.30;;;1.67;;
12363;SDS011;6246;50.826;4.712;2022-09-09T10:05:55;3.80;;;2.00;;
12363;SDS011;6246;50.826;4.712;2022-09-09T10:08:26;4.27;;;2.13;;
12363;SDS011;6246;50.826;4.712;2022-09-09T10:11:02;3.43;;;1.90;;
12363;SDS011;6246;50.826;4.712;2022-09-09T10:16:09;6.87;;;2.00;;
12363;SDS011;6246;50.826;4.712;2022-09-09T10:26:35;3.70;;;1.73;;
12363;SDS011;6246;50.826;4.712;2022-09-09T10:36:48;3.23;;;1.60;;
12363;SDS011;6246;50.826;4.712;2022-09-09T10:57:13;3.80;;;1.80;;
12363;SDS011;6246;50.826;4.712;2022-09-09T10:59:43;2.33;;;1.30;;
12363;SDS011;6246;50.826;4.712;2022-09-09T11:02:13;4.00;;;1.67;;
12363;SDS011;6246;50.826;4.712;2022-09-09T11:04:49;4.00;;;2.00;;
12363;SDS011;6246;50.826;4.712;2022-09-09T11:07:24;5.13;;;2.10;;
12363;SDS011;6246;50.826;4.712;2022-09-09T11:09:53;3.93;;;1.90;;
12363;SDS011;6246;50.826;4.712;2022-09-09T11:12:21;3.63;;;1.77;;
12363;SDS011;6246;50.826;4.712;2022-09-09T11:14:59;3.87;;;1.60;;
12363;SDS011;6246;50.826;4.712;2022-09-09T11:17:38;5.23;;;1.90;;
12363;SDS011;6246;50.826;4.712;2022-09-09T11:20:06;5.50;;;2.10;;
12363;SDS011;6246;50.826;4.712;2022-09-09T11:22:37;4.73;;;1.53;;
12363;SDS011;6246;50.826;4.712;2022-09-09T11:27:56;2.80;;;1.60;;
12363;SDS011;6246;50.826;4.712;2022-09-09T11:30:29;6.07;;;1.80;;
12363;SDS011;6246;50.826;4.712;2022-09-09T11:33:13;4.93;;;1.60;;
12363;SDS011;6246;50.826;4.712;2022-09-09T11:40:43;4.30;;;2.00;;
12363;SDS011;6246;50.826;4.712;2022-09-09T11:45:39;7.03;;;1.70;;
12363;SDS011;6246;50.826;4.712;2022-09-09T11:48:20;3.97;;;1.60;;
12363;SDS011;6246;50.826;4.712;2022-09-09T11:50:56;3.83;;;1.30;;
12363;SDS011;6246;50.826;4.712;2022-09-09T11:53:23;6.07;;;1.67;;
12363;SDS011;6246;50.826;4.712;2022-09-09T11:56:02;3.93;;;1.60;;
12363;SDS011;6246;50.826;4.712;2022-09-09T11:58:29;3.70;;;1.53;;
12363;SDS011;6246;50.826;4.712;2022-09-09T12:00:58;5.57;;;2.00;;
12363;SDS011;6246;50.826;4.712;2022-09-09T12:06:00;3.17;;;1.60;;
12363;SDS011;6246;50.826;4.712;2022-09-09T12:08:34;4.13;;;1.67;;
12363;SDS011;6246;50.826;4.712;2022-09-09T12:11:02;3.13;;;1.70;;
12363;SDS011;6246;50.826;4.712;2022-09-09T12:13:29;5.83;;;1.77;;
12363;SDS011;6246;50.826;4.712;2022-09-09T12:15:57;6.65;;;1.95;;
12363;SDS011;6246;50.826;4.712;2022-09-09T12:18:45;6.03;;;1.95;;
12363;SDS011;6246;50.826;4.712;2022-09-09T12:21:16;4.20;;;1.90;;
12363;SDS011;6246;50.826;4.712;2022-09-09T12:23:49;6.32;;;1.83;;
12363;SDS011;6246;50.826;4.712;2022-09-09T12:26:20;5.47;;;1.38;;
12363;SDS011;6246;50.826;4.712;2022-09-09T12:28:54;3.92;;;1.75;;
12363;SDS011;6246;50.826;4.712;2022-09-09T12:33:55;3.87;;;1.47;;
12363;SDS011;6246;50.826;4.712;2022-09-09T12:36:29;4.68;;;1.50;;
12363;SDS011;6246;50.826;4.712;2022-09-09T12:38:55;4.07;;;1.40;;
12363;SDS011;6246;50.826;4.712;2022-09-09T12:41:25;4.10;;;1.50;;
12363;SDS011;6246;50.826;4.712;2022-09-09T12:43:51;4.07;;;1.60;;
12363;SDS011;6246;50.826;4.712;2022-09-09T12:46:31;2.28;;;1.13;;
12363;SDS011;6246;50.826;4.712;2022-09-09T12:48:59;1.83;;;1.40;;
12363;SDS011;6246;50.826;4.712;2022-09-09T12:51:28;4.28;;;2.63;;
12363;SDS011;6246;50.826;4.712;2022-09-09T12:53:56;4.07;;;2.10;;
12363;SDS011;6246;50.826;4.712;2022-09-09T12:56:23;3.67;;;1.50;;
12363;SDS011;6246;50.826;4.712;2022-09-09T12:58:51;4.13;;;1.73;;
12363;SDS011;6246;50.826;4.712;2022-09-09T13:01:25;8.98;;;2.20;;
12363;SDS011;6246;50.826;4.712;2022-09-09T13:03:51;5.22;;;2.20;;
12363;SDS011;6246;50.826;4.712;2022-09-09T13:06:30;5.22;;;1.77;;
12363;SDS011;6246;50.826;4.712;2022-09-09T13:08:58;4.10;;;2.03;;
12363;SDS011;6246;50.826;4.712;2022-09-09T13:13:54;3.20;;;1.70;;
12363;SDS011;6246;50.826;4.712;2022-09-09T13:16:30;3.00;;;1.70;;
12363;SDS011;6246;50.826;4.712;2022-09-09T13:18:57;1.95;;;1.33;;
12363;SDS011;6246;50.826;4.712;2022-09-09T13:21:30;3.45;;;1.77;;
12363;SDS011;6246;50.826;4.712;2022-09-09T13:23:57;2.20;;;1.58;;
12363;SDS011;6246;50.826;4.712;2022-09-09T13:26:28;2.80;;;1.35;;
12363;SDS011;6246;50.826;4.712;2022-09-09T13:28:55;1.67;;;1.35;;
12363;SDS011;6246;50.826;4.712;2022-09-09T13:31:32;3.25;;;1.77;;
12363;SDS011;6246;50.826;4.712;2022-09-09T13:33:58;2.25;;;1.35;;
12363;SDS011;6246;50.826;4.712;2022-09-09T13:36:29;3.35;;;1.60;;
12363;SDS011;6246;50.826;4.712;2022-09-09T13:38:56;2.13;;;1.60;;
12363;SDS011;6246;50.826;4.712;2022-09-09T13:41:25;3.63;;;1.60;;
12363;SDS011;6246;50.826;4.712;2022-09-09T13:43:55;2.25;;;1.33;;
12363;SDS011;6246;50.826;4.712;2022-09-09T13:48:59;1.75;;;1.30;;
12363;SDS011;6246;50.826;4.712;2022-09-09T13:51:46;5.65;;;1.98;;
12363;SDS011;6246;50.826;4.712;2022-09-09T13:54:15;2.97;;;1.23;;
12363;SDS011;6246;50.826;4.712;2022-09-09T13:56:41;2.20;;;1.10;;
12363;SDS011;6246;50.826;4.712;2022-09-09T13:59:12;4.00;;;1.83;;
12363;SDS011;6246;50.826;4.712;2022-09-09T14:01:38;2.33;;;1.25;;
12363;SDS011;6246;50.826;4.712;2022-09-09T14:04:05;2.58;;;1.00;;
12363;SDS011;6246;50.826;4.712;2022-09-09T14:06:32;3.70;;;1.40;;
12363;SDS011;6246;50.826;4.712;2022-09-09T14:09:00;2.80;;;1.40;;
12363;SDS011;6246;50.826;4.712;2022-09-09T14:11:26;5.40;;;1.38;;
12363;SDS011;6246;50.826;4.712;2022-09-09T14:13:52;3.42;;;1.60;;
12363;SDS011;6246;50.826;4.712;2022-09-09T14:16:18;2.47;;;1.52;;
12363;SDS011;6246;50.826;4.712;2022-09-09T14:18:44;2.15;;;1.40;;
12363;SDS011;6246;50.826;4.712;2022-09-09T14:21:11;2.45;;;1.48;;
12363;SDS011;6246;50.826;4.712;2022-09-09T14:23:37;1.55;;;1.20;;
12363;SDS011;6246;50.826;4.712;2022-09-09T14:26:04;2.30;;;1.42;;
12363;SDS011;6246;50.826;4.712;2022-09-09T14:28:30;1.88;;;1.20;;
12363;SDS011;6246;50.826;4.712;2022-09-09T14:31:01;1.35;;;1.20;;
12363;SDS011;6246;50.826;4.712;2022-09-09T14:33:27;3.80;;;1.33;;
12363;SDS011;6246;50.826;4.712;2022-09-09T14:36:00;4.82;;;1.27;;
12363;SDS011;6246;50.826;4.712;2022-09-09T14:38:34;1.27;;;1.10;;
12363;SDS011;6246;50.826;4.712;2022-09-09T14:41:03;1.50;;;1.00;;
12363;SDS011;6246;50.826;4.712;2022-09-09T14:43:29;1.67;;;0.85;;
12363;SDS011;6246;50.826;4.712;2022-09-09T14:45:57;4.75;;;1.48;;
12363;SDS011;6246;50.826;4.712;2022-09-09T14:48:23;2.00;;;1.13;;
12363;SDS011;6246;50.826;4.712;2022-09-09T14:50:49;1.95;;;1.15;;
12363;SDS011;6246;50.826;4.712;2022-09-09T14:53:16;2.28;;;1.23;;
12363;SDS011;6246;50.826;4.712;2022-09-09T14:55:42;1.67;;;1.00;;
12363;SDS011;6246;50.826;4.712;2022-09-09T14:58:08;2.85;;;1.17;;
12363;SDS011;6246;50.826;4.712;2022-09-09T15:00:34;1.48;;;1.10;;
12363;SDS011;6246;50.826;4.712;2022-09-09T15:03:01;3.10;;;1.02;;
12363;SDS011;6246;50.826;4.712;2022-09-09T15:05:27;3.35;;;1.23;;
12363;SDS011;6246;50.826;4.712;2022-09-09T15:07:53;2.30;;;1.35;;
12363;SDS011;6246;50.826;4.712;2022-09-09T15:10:19;3.05;;;1.20;;
12363;SDS011;6246;50.826;4.712;2022-09-09T15:12:46;4.05;;;1.30;;
12363;SDS011;6246;50.826;4.712;2022-09-09T15:15:12;2.13;;;0.98;;
12363;SDS011;6246;50.826;4.712;2022-09-09T15:17:37;3.30;;;1.40;;
12363;SDS011;6246;50.826;4.712;2022-09-09T15:20:04;0.95;;;0.65;;
12363;SDS011;6246;50.826;4.712;2022-09-09T15:22:30;2.63;;;0.82;;
12363;SDS011;6246;50.826;4.712;2022-09-09T15:24:56;2.65;;;1.10;;
12363;SDS011;6246;50.826;4.712;2022-09-09T15:27:22;2.97;;;1.35;;
12363;SDS011;6246;50.826;4.712;2022-09-09T15:29:49;2.25;;;0.85;;
12363;SDS011;6246;50.826;4.712;2022-09-09T15:32:16;1.60;;;1.00;;
12363;SDS011;6246;50.826;4.712;2022-09-09T15:34:42;1.98;;;0.80;;
12363;SDS011;6246;50.826;4.712;2022-09-09T15:37:11;4.00;;;1.02;;
12363;SDS011;6246;50.826;4.712;2022-09-09T15:39:40;3.08;;;1.02;;
12363;SDS011;6246;50.826;4.712;2022-09-09T15:42:06;3.92;;;1.38;;
12363;SDS011;6246;50.826;4.712;2022-09-09T15:44:42;3.47;;;1.20;;
12363;SDS011;6246;50.826;4.712;2022-09-09T15:47:11;1.65;;;0.82;;
12363;SDS011;6246;50.826;4.712;2022-09-09T15:49:38;3.83;;;1.10;;
12363;SDS011;6246;50.826;4.712;2022-09-09T15:52:04;3.67;;;1.00;;
12363;SDS011;6246;50.826;4.712;2022-09-09T15:54:31;4.97;;;1.38;;
12363;SDS011;6246;50.826;4.712;2022-09-09T15:56:58;1.65;;;0.85;;
12363;SDS011;6246;50.826;4.712;2022-09-09T15:59:26;5.63;;;1.23;;
12363;SDS011;6246;50.826;4.712;2022-09-09T16:01:55;3.72;;;0.90;;
12363;SDS011;6246;50.826;4.712;2022-09-09T16:04:22;2.72;;;1.02;;
12363;SDS011;6246;50.826;4.712;2022-09-09T16:06:58;2.40;;;0.80;;
12363;SDS011;6246;50.826;4.712;2022-09-09T16:09:25;8.07;;;1.40;;
12363;SDS011;6246;50.826;4.712;2022-09-09T16:11:51;8.90;;;1.73;;
12363;SDS011;6246;50.826;4.712;2022-09-09T16:14:18;6.85;;;1.48;;
12363;SDS011;6246;50.826;4.712;2022-09-09T16:16:45;4.70;;;1.23;;
12363;SDS011;6246;50.826;4.712;2022-09-09T16:19:11;6.80;;;2.00;;
12363;SDS011;6246;50.826;4.712;2022-09-09T16:21:39;5.20;;;1.63;;
12363;SDS011;6246;50.826;4.712;2022-09-09T16:24:05;4.68;;;2.08;;
12363;SDS011;6246;50.826;4.712;2022-09-09T16:26:32;8.93;;;3.00;;
12363;SDS011;6246;50.826;4.712;2022-09-09T16:28:59;14.93;;;2.58;;
12363;SDS011;6246;50.826;4.712;2022-09-09T16:31:26;7.68;;;2.38;;
12363;SDS011;6246;50.826;4.712;2022-09-09T16:33:53;17.98;;;3.00;;
12363;SDS011;6246;50.826;4.712;2022-09-09T16:36:20;9.85;;;2.70;;
12363;SDS011;6246;50.826;4.712;2022-09-09T16:38:47;4.95;;;2.05;;
12363;SDS011;6246;50.826;4.712;2022-09-09T16:41:13;6.68;;;1.88;;
12363;SDS011;6246;50.826;4.712;2022-09-09T16:43:40;10.82;;;2.80;;
12363;SDS011;6246;50.826;4.712;2022-09-09T16:46:13;13.75;;;2.58;;
12363;SDS011;6246;50.826;4.712;2022-09-09T16:48:40;5.05;;;2.00;;
12363;SDS011;6246;50.826;4.712;2022-09-09T16:51:09;6.35;;;1.55;;
12363;SDS011;6246;50.826;4.712;2022-09-09T16:53:39;12.65;;;2.03;;
12363;SDS011;6246;50.826;4.712;2022-09-09T16:56:08;3.87;;;1.60;;
12363;SDS011;6246;50.826;4.712;2022-09-09T16:58:34;4.55;;;1.80;;
12363;SDS011;6246;50.826;4.712;2022-09-09T17:01:02;8.73;;;2.70;;
12363;SDS011;6246;50.826;4.712;2022-09-09T17:03:29;7.18;;;2.28;;
12363;SDS011;6246;50.826;4.712;2022-09-09T17:05:55;4.82;;;1.83;;
12363;SDS011;6246;50.826;4.712;2022-09-09T17:08:22;6.40;;;2.30;;
12363;SDS011;6246;50.826;4.712;2022-09-09T17:10:48;5.88;;;2.00;;
12363;SDS011;6246;50.826;4.712;2022-09-09T17:13:15;5.05;;;2.13;;
12363;SDS011;6246;50.826;4.712;2022-09-09T17:15:44;5.38;;;1.80;;
12363;SDS011;6246;50.826;4.712;2022-09-09T17:18:11;2.70;;;1.60;;
12363;SDS011;6246;50.826;4.712;2022-09-09T17:20:38;5.93;;;1.58;;